Time;durP1;ratioP1;P1;durP2;ratioP2;P2;SDS_P1;SDS_P2;PMS_P1;PMS_P2;Temp;Humidity;BMP_temperature;BMP_pressure;BME280_temperature;BME280_humidity;BME280_pressure;Samples;Min_cycle;Max_cycle;Signal;HPM_P1;HPM_P2
2023/10/09 00:00:55;;;;;;;5.70;2.30;;;20.30;66.50;;;;;;5104023;28;20028;-57
2023/10/09 00:03:24;;;;;;;5.25;2.30;;;20.30;66.90;;;;;;5105023;28;20030;-57
2023/10/09 00:05:53;;;;;;;11.48;2.50;;;20.30;66.60;;;;;;5110722;28;20054;-57
2023/10/09 00:08:39;;;;;;;6.38;3.10;;;20.30;66.60;;;;;;5100636;28;20022;-55
2023/10/09 00:11:17;;;;;;;3.83;2.40;;;20.30;66.60;;;;;;5102680;28;20072;-57
2023/10/09 00:13:57;;;;;;;4.07;2.13;;;20.30;66.60;;;;;;5107728;28;20625;-55
2023/10/09 00:16:34;;;;;;;7.80;2.53;;;20.30;66.70;;;;;;5110136;28;20032;-57
2023/10/09 00:19:16;;;;;;;7.05;2.58;;;20.30;66.70;;;;;;5101789;28;20024;-55
2023/10/09 00:21:47;;;;;;;6.97;2.67;;;20.30;66.80;;;;;;5098845;28;20032;-57
2023/10/09 00:24:13;;;;;;;4.05;2.22;;;20.30;66.90;;;;;;5104814;28;20089;-56
2023/10/09 00:26:48;;;;;;;5.15;2.25;;;20.30;66.90;;;;;;5107029;28;20024;-57
2023/10/09 00:29:22;;;;;;;7.15;2.63;;;20.20;66.90;;;;;;5105633;28;20028;-58
2023/10/09 00:32:05;;;;;;;4.88;2.42;;;20.30;66.90;;;;;;5107274;28;20174;-55
2023/10/09 00:34:39;;;;;;;5.28;2.47;;;20.30;67.00;;;;;;5109859;28;20448;-57
2023/10/09 00:37:25;;;;;;;4.88;2.40;;;20.20;66.90;;;;;;5105100;28;20066;-57
2023/10/09 00:39:57;;;;;;;6.93;2.80;;;20.20;66.90;;;;;;5104887;28;20023;-57
2023/10/09 00:42:33;;;;;;;6.30;2.42;;;20.20;67.00;;;;;;5110138;28;20024;-56
2023/10/09 00:45:07;;;;;;;8.00;2.45;;;20.20;67.00;;;;;;5109522;28;20020;-57
2023/10/09 00:47:34;;;;;;;4.60;2.15;;;20.30;67.00;;;;;;5110804;28;20368;-57
2023/10/09 00:50:11;;;;;;;5.97;2.38;;;20.20;67.00;;;;;;5111321;28;20031;-56
2023/10/09 00:52:49;;;;;;;7.40;2.70;;;20.20;67.10;;;;;;5109231;28;20482;-54
2023/10/09 00:55:21;;;;;;;6.75;2.50;;;20.30;67.10;;;;;;5108032;28;20486;-49
2023/10/09 00:57:58;;;;;;;4.95;2.42;;;20.20;67.20;;;;;;5113057;28;20027;-58
2023/10/09 01:00:45;;;;;;;6.05;2.75;;;20.20;67.10;;;;;;5089410;28;20032;-57
2023/10/09 01:05:51;;;;;;;4.85;2.45;;;20.20;67.10;;;;;;5113263;28;20023;-53
2023/10/09 01:08:28;;;;;;;5.22;2.50;;;20.20;67.10;;;;;;5103149;28;20023;-57
2023/10/09 01:10:56;;;;;;;4.85;2.20;;;20.20;67.10;;;;;;5112549;28;20495;-56
2023/10/09 01:13:38;;;;;;;8.05;2.45;;;20.20;67.10;;;;;;5114043;28;20077;-55
2023/10/09 01:16:06;;;;;;;5.70;2.50;;;20.20;67.10;;;;;;5114187;28;20084;-57
2023/10/09 01:18:36;;;;;;;7.40;2.30;;;20.20;67.20;;;;;;5111949;28;20051;-57
2023/10/09 01:21:03;;;;;;;5.13;2.45;;;20.20;67.20;;;;;;5102050;28;20419;-56
2023/10/09 01:23:29;;;;;;;4.80;2.38;;;20.20;67.00;;;;;;5106941;28;20024;-56
2023/10/09 01:25:55;;;;;;;4.40;2.33;;;20.20;67.10;;;;;;5109619;28;20038;-56
2023/10/09 01:28:21;;;;;;;6.57;2.20;;;20.20;67.10;;;;;;5113824;28;20456;-57
2023/10/09 01:30:47;;;;;;;4.70;2.03;;;20.20;67.20;;;;;;5110160;28;20058;-55
2023/10/09 01:33:23;;;;;;;6.72;2.20;;;20.20;67.20;;;;;;5110034;28;20102;-57
2023/10/09 01:35:53;;;;;;;3.80;2.30;;;20.20;67.10;;;;;;5109889;28;20088;-57
2023/10/09 01:38:30;;;;;;;7.35;2.55;;;20.20;67.10;;;;;;5108653;28;20097;-51
2023/10/09 01:41:03;;;;;;;3.53;1.95;;;20.20;67.10;;;;;;5112069;28;20059;-57
2023/10/09 01:43:29;;;;;;;5.80;2.30;;;20.20;67.10;;;;;;5103748;28;20031;-56
2023/10/09 01:45:55;;;;;;;4.38;2.10;;;20.20;67.10;;;;;;5106119;28;20062;-54
2023/10/09 01:48:24;;;;;;;5.47;2.08;;;20.20;67.00;;;;;;5110360;28;20043;-50
2023/10/09 01:50:50;;;;;;;3.93;2.30;;;20.20;67.10;;;;;;5106874;28;20360;-56
2023/10/09 01:53:21;;;;;;;3.75;2.10;;;20.20;67.10;;;;;;5111466;28;20495;-57
2023/10/09 01:55:47;;;;;;;7.38;2.70;;;20.20;67.00;;;;;;5109056;28;20069;-57
2023/10/09 02:00:55;;;;;;;5.10;2.53;;;20.20;67.00;;;;;;5104875;28;20031;-56
2023/10/09 02:03:24;;;;;;;7.35;2.40;;;20.20;67.00;;;;;;5103190;28;20024;-57
2023/10/09 02:05:51;;;;;;;3.78;2.40;;;20.20;66.90;;;;;;5110391;28;20023;-57
2023/10/09 02:08:21;;;;;;;3.55;2.30;;;20.20;67.00;;;;;;5110894;28;20023;-58
2023/10/09 02:10:48;;;;;;;7.93;2.17;;;20.20;66.90;;;;;;5111017;28;20019;-55
2023/10/09 02:13:17;;;;;;;4.85;2.22;;;20.20;66.90;;;;;;5107883;28;20035;-58
2023/10/09 02:18:17;;;;;;;4.38;2.67;;;20.20;66.80;;;;;;5100015;28;20403;-56
2023/10/09 02:20:47;;;;;;;5.88;2.15;;;20.20;66.90;;;;;;5107759;28;20069;-51
2023/10/09 02:23:17;;;;;;;4.70;2.20;;;20.20;66.80;;;;;;5103077;28;20028;-57
2023/10/09 02:25:43;;;;;;;5.50;2.20;;;20.20;66.90;;;;;;5109450;28;20019;-57
2023/10/09 02:28:19;;;;;;;3.88;2.38;;;20.20;66.90;;;;;;5134658;22;20051;-62
2023/10/09 02:30:48;;;;;;;4.07;2.08;;;20.20;66.90;;;;;;5111053;28;20027;-62
2023/10/09 02:33:27;;;;;;;4.57;2.03;;;20.20;67.00;;;;;;5112139;28;20024;-62
2023/10/09 02:35:59;;;;;;;6.53;2.50;;;20.20;67.00;;;;;;5112408;28;20060;-62
2023/10/09 02:38:26;;;;;;;5.40;2.10;;;20.20;67.10;;;;;;5112021;28;20028;-62
2023/10/09 02:41:20;;;;;;;6.20;2.20;;;20.20;67.60;;;;;;5111890;28;20031;-62
2023/10/09 02:43:47;;;;;;;7.43;2.30;;;20.20;67.50;;;;;;5110251;28;20046;-62
2023/10/09 02:48:52;;;;;;;4.97;2.50;;;20.20;67.00;;;;;;5112801;28;20063;-62
2023/10/09 02:53:56;;;;;;;5.45;2.40;;;20.20;67.10;;;;;;5112337;28;20077;-62
2023/10/09 02:56:36;;;;;;;7.00;2.63;;;20.20;67.20;;;;;;5111832;28;20506;-62
2023/10/09 02:59:05;;;;;;;3.35;2.08;;;20.10;67.20;;;;;;5105757;28;20047;-62
2023/10/09 03:01:34;;;;;;;4.43;2.38;;;20.20;67.10;;;;;;5110532;28;20084;-62
2023/10/09 03:04:05;;;;;;;3.70;2.20;;;20.10;67.10;;;;;;5109047;28;20027;-62
2023/10/09 03:06:34;;;;;;;4.70;2.28;;;20.10;67.20;;;;;;5110368;28;20024;-62
2023/10/09 03:09:16;;;;;;;3.33;2.05;;;20.10;67.30;;;;;;5111122;28;20398;-62
2023/10/09 03:11:48;;;;;;;4.20;1.90;;;20.10;67.30;;;;;;5109738;28;20030;-62
2023/10/09 03:14:15;;;;;;;4.25;2.30;;;20.20;67.30;;;;;;5112025;28;20477;-62
2023/10/09 03:16:42;;;;;;;4.35;2.30;;;20.10;67.30;;;;;;5102439;28;20047;-62
2023/10/09 03:19:11;;;;;;;5.68;2.10;;;20.10;67.40;;;;;;5119586;27;20052;-62
2023/10/09 03:21:37;;;;;;;6.18;2.30;;;20.10;67.50;;;;;;5103824;28;20042;-62
2023/10/09 03:24:04;;;;;;;8.85;2.28;;;20.10;67.50;;;;;;5103325;28;20043;-62
2023/10/09 03:26:31;;;;;;;4.45;2.20;;;20.10;67.50;;;;;;5109788;28;20550;-62
2023/10/09 03:29:01;;;;;;;3.25;1.95;;;20.20;67.50;;;;;;5110605;28;20027;-62
2023/10/09 03:31:33;;;;;;;6.97;2.50;;;20.10;67.40;;;;;;5105340;28;20032;-62
2023/10/09 03:33:59;;;;;;;4.80;2.10;;;20.10;67.50;;;;;;5110206;28;20401;-62
2023/10/09 03:36:29;;;;;;;6.47;2.30;;;20.20;67.60;;;;;;5105650;28;20027;-62
2023/10/09 03:38:55;;;;;;;4.10;2.00;;;20.10;67.60;;;;;;5111844;28;20023;-62
2023/10/09 03:41:21;;;;;;;5.22;2.40;;;20.10;67.70;;;;;;5105637;28;20024;-62
2023/10/09 03:43:47;;;;;;;4.82;2.00;;;20.10;67.70;;;;;;5105593;28;20054;-62
2023/10/09 03:46:25;;;;;;;5.97;1.83;;;20.20;67.60;;;;;;5102528;28;20020;-63
2023/10/09 03:48:52;;;;;;;4.78;1.83;;;20.20;67.70;;;;;;5110929;28;20439;-62
2023/10/09 03:51:21;;;;;;;3.70;2.25;;;20.20;67.90;;;;;;5110861;28;20051;-62
2023/10/09 03:53:48;;;;;;;7.07;2.10;;;20.20;68.10;;;;;;5111449;28;20030;-62
2023/10/09 03:56:17;;;;;;;5.20;2.10;;;20.20;67.70;;;;;;5105512;28;20498;-62
2023/10/09 03:58:45;;;;;;;5.72;2.25;;;20.20;67.50;;;;;;5104895;28;20076;-62
2023/10/09 04:01:23;;;;;;;4.45;2.10;;;20.30;68.30;;;;;;5111398;28;20032;-62
2023/10/09 04:03:54;;;;;;;5.22;2.08;;;20.30;67.60;;;;;;5101638;28;20059;-62
2023/10/09 04:06:28;;;;;;;4.10;2.05;;;20.30;67.50;;;;;;5103584;28;20030;-62
2023/10/09 04:08:54;;;;;;;3.15;1.80;;;20.30;67.40;;;;;;5110348;28;20024;-62
2023/10/09 04:11:24;;;;;;;5.22;2.28;;;20.30;67.40;;;;;;5110678;28;20110;-62
2023/10/09 04:13:51;;;;;;;;;;;20.40;67.50;;;;;;5107575;28;20019;-62
2023/10/09 04:19:08;;;;;;;5.45;2.15;;;20.40;67.30;;;;;;5110410;28;20039;-62
2023/10/09 04:21:34;;;;;;;3.60;2.15;;;20.40;67.40;;;;;;5102129;28;20032;-62
2023/10/09 04:24:44;;;;;;;3.80;2.15;;;20.40;67.20;;;;;;5111464;28;20019;-62
2023/10/09 04:26:56;;;;;;;3.30;1.67;;;20.30;67.30;;;;;;5099187;28;20094;-62
2023/10/09 04:29:26;;;;;;;6.38;2.38;;;20.40;67.30;;;;;;5113114;28;20490;-62
2023/10/09 04:31:56;;;;;;;3.65;1.95;;;20.40;67.30;;;;;;5113818;28;20019;-62
2023/10/09 04:34:34;;;;;;;4.07;1.95;;;20.40;67.60;;;;;;5108130;28;20023;-62
2023/10/09 04:37:01;;;;;;;3.42;1.90;;;20.40;67.30;;;;;;5107247;28;20551;-62
2023/10/09 04:45:18;;;;;;;4.13;2.20;;;20.30;67.10;;;;;;5111171;28;20031;-62
2023/10/09 04:47:35;;;;;;;4.78;1.65;;;20.40;67.20;;;;;;5114123;28;20039;-62
2023/10/09 05:02:56;;;;;;;5.15;1.98;;;20.40;67.00;;;;;;5112175;28;20126;-63
2023/10/09 05:06:42;;;;;;;4.75;2.00;;;20.40;67.80;;;;;;5108999;28;20064;-62
2023/10/09 05:08:21;;;;;;;11.27;2.50;;;20.40;67.30;;;;;;5095987;28;20031;-62
2023/10/09 05:16:18;;;;;;;2.97;1.83;;;20.40;67.50;;;;;;5103499;28;20398;-62
2023/10/09 05:18:55;;;;;;;3.97;2.10;;;20.40;67.60;;;;;;5113381;28;20053;-62
2023/10/09 05:32:27;;;;;;;7.78;1.90;;;20.40;67.30;;;;;;5109220;28;20020;-62
2023/10/09 05:37:26;;;;;;;10.18;2.60;;;20.40;67.00;;;;;;5108636;28;20324;-62
2023/10/09 05:47:54;;;;;;;4.90;2.33;;;20.40;67.50;;;;;;5113396;28;20028;-62
2023/10/09 06:03:48;;;;;;;6.20;2.50;;;20.30;67.30;;;;;;5109781;28;20023;-62
2023/10/09 06:06:32;;;;;;;5.97;1.95;;;20.40;67.60;;;;;;5102552;28;20028;-62
2023/10/09 06:11:48;;;;;;;5.32;2.47;;;20.40;67.20;;;;;;5108762;28;20039;-62
2023/10/09 06:14:24;;;;;;;4.47;1.92;;;20.40;67.40;;;;;;5107150;28;20375;-62
2023/10/09 06:19:58;;;;;;;4.10;2.03;;;20.40;67.30;;;;;;5069239;28;20078;-62
2023/10/09 06:22:58;;;;;;;12.18;2.20;;;20.30;67.30;;;;;;5070174;28;20036;-62
2023/10/09 06:25:17;;;;;;;5.35;2.10;;;20.40;67.80;;;;;;5060634;28;20047;-62
2023/10/09 06:30:24;;;;;;;7.07;2.10;;;20.30;68.10;;;;;;5067206;28;20183;-62
2023/10/09 06:32:51;;;;;;;7.55;2.17;;;20.40;68.00;;;;;;5069855;28;20527;-62
2023/10/09 06:35:32;;;;;;;5.55;2.10;;;20.30;67.90;;;;;;5064587;28;20037;-62
2023/10/09 06:43:36;;;;;;;11.30;2.15;;;20.40;68.30;;;;;;5054999;28;19916;-62
2023/10/09 06:46:43;;;;;;;6.00;1.95;;;20.30;68.40;;;;;;5060083;28;20435;-62
2023/10/09 06:48:55;;;;;;;8.63;2.78;;;20.40;68.20;;;;;;5053245;28;20514;-63
2023/10/09 06:58:57;;;;;;;38.78;3.30;;;20.40;68.30;;;;;;5104211;28;19907;-63
2023/10/09 07:04:18;;;;;;;15.75;2.53;;;20.40;68.20;;;;;;5109320;28;20024;-63
2023/10/09 07:17:01;;;;;;;15.82;3.33;;;20.10;65.30;;;;;;5098091;28;20106;-64
2023/10/09 07:22:03;;;;;;;9.27;2.42;;;20.20;65.10;;;;;;5111200;28;20076;-64
2023/10/09 07:24:43;;;;;;;7.13;2.50;;;20.20;65.70;;;;;;5109335;28;20062;-64
2023/10/09 07:27:13;;;;;;;7.70;2.42;;;20.20;65.80;;;;;;5111646;28;20047;-64
2023/10/09 07:29:47;;;;;;;9.50;2.95;;;20.20;66.00;;;;;;5110870;28;20379;-64
2023/10/09 07:32:20;;;;;;;6.68;2.70;;;20.20;66.20;;;;;;5112093;28;20024;-64
2023/10/09 07:34:52;;;;;;;8.10;2.55;;;20.20;66.30;;;;;;5111658;28;20020;-64
2023/10/09 07:37:30;;;;;;;9.32;2.58;;;20.20;66.40;;;;;;5112217;28;20035;-64
2023/10/09 07:39:57;;;;;;;13.48;2.88;;;20.20;66.20;;;;;;5111179;28;20095;-64
2023/10/09 07:42:34;;;;;;;5.85;2.40;;;20.20;66.40;;;;;;5112056;28;20042;-64
2023/10/09 07:45:12;;;;;;;5.97;2.22;;;20.30;66.00;;;;;;5111887;28;20103;-64
2023/10/09 07:48:02;;;;;;;8.15;2.08;;;20.30;66.40;;;;;;5110919;28;20467;-64
2023/10/09 07:51:05;;;;;;;;;;;20.30;66.20;;;;;;5113031;28;20101;-64
2023/10/09 07:53:26;;;;;;;6.82;2.42;;;20.30;66.10;;;;;;5109398;28;20010;-64
2023/10/09 07:55:58;;;;;;;10.40;2.28;;;20.30;66.20;;;;;;5113617;28;20035;-64
2023/10/09 07:58:28;;;;;;;9.18;2.63;;;20.30;66.10;;;;;;5113044;28;20020;-64
2023/10/09 08:03:24;;;;;;;4.53;2.33;;;20.30;66.10;;;;;;5112246;28;20034;-64
2023/10/09 08:05:53;;;;;;;5.50;2.15;;;20.30;66.20;;;;;;5112415;28;20030;-64
2023/10/09 08:13:57;;;;;;;4.72;2.25;;;20.30;66.40;;;;;;5111413;28;20059;-63
2023/10/09 08:16:36;;;;;;;5.05;2.17;;;20.30;66.50;;;;;;5111543;28;20027;-64
2023/10/09 08:24:41;;;;;;;4.63;2.03;;;20.30;66.30;;;;;;5111222;28;20508;-64
2023/10/09 08:27:54;;;;;;;7.80;2.78;;;20.30;67.00;;;;;;5111246;28;20051;-64
2023/10/09 08:32:42;;;;;;;4.80;2.30;;;20.30;66.30;;;;;;5111332;28;20379;-64
2023/10/09 08:37:54;;;;;;;12.52;2.40;;;20.20;66.60;;;;;;5111372;28;20038;-64
2023/10/09 08:40:20;;;;;;;3.92;1.83;;;20.30;66.50;;;;;;5111275;28;20027;-64
2023/10/09 08:42:53;;;;;;;4.60;2.28;;;20.30;66.30;;;;;;5110977;28;20058;-64
2023/10/09 08:45:24;;;;;;;7.95;2.30;;;20.30;66.40;;;;;;5111422;28;20032;-64
2023/10/09 08:47:54;;;;;;;8.32;2.38;;;20.30;66.90;;;;;;5111203;28;20020;-63
2023/10/09 08:50:21;;;;;;;7.72;2.65;;;20.40;67.10;;;;;;5111425;28;20027;-63
2023/10/09 08:52:49;;;;;;;9.88;2.40;;;20.40;66.90;;;;;;5109904;28;20031;-63
2023/10/09 08:55:18;;;;;;;9.40;2.47;;;20.40;67.20;;;;;;5110292;28;20031;-65
2023/10/09 08:57:46;;;;;;;4.60;2.20;;;20.40;67.20;;;;;;5111298;28;20035;-64
2023/10/09 09:00:23;;;;;;;5.45;2.33;;;20.40;67.80;;;;;;5111337;28;20114;-63
2023/10/09 09:02:55;;;;;;;7.93;2.58;;;20.50;68.40;;;;;;5109880;28;20380;-64
2023/10/09 09:05:21;;;;;;;4.25;2.40;;;20.50;69.00;;;;;;5111342;28;20028;-64
2023/10/09 09:07:48;;;;;;;9.95;2.65;;;20.50;67.40;;;;;;5109878;28;20043;-64
2023/10/09 09:10:31;;;;;;;10.90;3.22;;;20.50;69.90;;;;;;5112100;28;20094;-63
2023/10/09 09:13:03;;;;;;;8.40;2.40;;;20.50;70.40;;;;;;5114817;28;20042;-63
2023/10/09 09:15:30;;;;;;;6.82;2.80;;;20.50;70.20;;;;;;5115084;28;20027;-63
2023/10/09 09:18:11;;;;;;;7.82;2.72;;;20.50;70.30;;;;;;5114882;28;20144;-64
2023/10/09 09:20:40;;;;;;;9.05;2.53;;;20.50;69.60;;;;;;5113673;28;20035;-64
2023/10/09 09:23:12;;;;;;;7.85;2.22;;;20.50;69.50;;;;;;5114487;28;20052;-64
2023/10/09 09:25:47;;;;;;;5.85;1.92;;;20.50;69.10;;;;;;5114767;28;20032;-63
2023/10/09 09:28:19;;;;;;;7.57;2.58;;;20.50;69.60;;;;;;5109505;28;20035;-64
2023/10/09 09:30:50;;;;;;;7.05;2.35;;;20.50;69.40;;;;;;5093014;28;20103;-64
2023/10/09 09:33:43;;;;;;;4.32;2.00;;;20.50;69.20;;;;;;5110654;28;20302;-64
2023/10/09 09:36:11;;;;;;;8.07;2.38;;;20.50;69.00;;;;;;5110009;28;20047;-64
2023/10/09 09:38:52;;;;;;;9.02;2.40;;;20.50;68.70;;;;;;5111223;28;20490;-64
2023/10/09 09:41:24;;;;;;;7.70;2.38;;;20.50;68.50;;;;;;5104240;28;20072;-64
2023/10/09 09:44:00;;;;;;;11.07;2.83;;;20.50;68.50;;;;;;5111157;28;20020;-64
2023/10/09 09:46:33;;;;;;;9.77;2.60;;;20.50;68.60;;;;;;5106941;28;20032;-64
2023/10/09 09:49:05;;;;;;;7.20;2.00;;;20.50;68.60;;;;;;5109562;28;20072;-63
2023/10/09 09:51:34;;;;;;;4.60;2.38;;;20.50;68.40;;;;;;5106047;28;20024;-64
2023/10/09 09:54:02;;;;;;;10.83;2.27;;;20.40;68.40;;;;;;5109770;28;20035;-64
2023/10/09 09:56:30;;;;;;;12.07;2.10;;;20.40;68.50;;;;;;5109829;28;20269;-64
2023/10/09 09:59:00;;;;;;;7.93;2.63;;;20.50;68.60;;;;;;5107608;28;20161;-64
2023/10/09 10:01:31;;;;;;;13.55;2.70;;;20.50;68.50;;;;;;5108775;28;20039;-64
2023/10/09 10:04:28;;;;;;;8.90;2.42;;;20.50;68.50;;;;;;5109197;28;20052;-64
2023/10/09 10:06:55;;;;;;;5.63;2.20;;;20.50;68.40;;;;;;5107137;28;20028;-64
2023/10/09 10:09:40;;;;;;;7.28;2.50;;;20.50;68.40;;;;;;5107799;28;20407;-64
2023/10/09 10:12:10;;;;;;;6.45;2.55;;;20.50;68.40;;;;;;5108356;28;20027;-64
2023/10/09 10:14:52;;;;;;;;;;;20.50;68.30;;;;;;5109773;28;20077;-64
2023/10/09 10:17:21;;;;;;;10.13;2.30;;;20.50;68.30;;;;;;5108824;28;19908;-64
2023/10/09 10:20:04;;;;;;;6.82;2.00;;;20.50;68.20;;;;;;5109696;28;20051;-64
2023/10/09 10:22:30;;;;;;;7.97;2.00;;;20.50;68.30;;;;;;5109248;28;20390;-64
2023/10/09 10:25:08;;;;;;;5.35;2.33;;;20.50;68.20;;;;;;5108534;28;20488;-63
2023/10/09 10:27:44;;;;;;;6.07;2.50;;;20.50;68.20;;;;;;5109257;28;20490;-64
2023/10/09 10:30:13;;;;;;;4.65;2.10;;;20.50;68.10;;;;;;5105877;28;20072;-65
2023/10/09 10:32:52;;;;;;;6.90;2.47;;;20.50;68.20;;;;;;5107703;28;20063;-64
2023/10/09 10:35:32;;;;;;;5.55;2.38;;;20.50;68.10;;;;;;5105078;28;20106;-64
2023/10/09 10:38:14;;;;;;;7.53;2.45;;;20.60;68.20;;;;;;5108981;28;20030;-64
2023/10/09 10:40:46;;;;;;;4.47;2.08;;;20.50;68.10;;;;;;5107248;28;20129;-64
2023/10/09 10:43:47;;;;;;;6.05;2.13;;;20.50;68.00;;;;;;5106384;28;20130;-64
2023/10/09 10:49:40;;;;;;;5.50;2.30;;;20.50;67.90;;;;;;5108721;28;20023;-64
2023/10/09 10:51:39;;;;;;;;;;;20.60;68.10;;;;;;5104857;28;20376;-64
2023/10/09 10:56:51;;;;;;;5.38;2.22;;;20.50;68.00;;;;;;5107443;28;20035;-63
2023/10/09 10:59:26;;;;;;;10.40;2.28;;;20.50;68.00;;;;;;5108486;28;20058;-64
2023/10/09 11:01:53;;;;;;;5.25;2.08;;;20.50;68.00;;;;;;5108501;28;20214;-64
2023/10/09 11:07:16;;;;;;;4.53;2.20;;;20.50;68.00;;;;;;5107966;28;20042;-64
2023/10/09 11:10:07;;;;;;;4.15;2.20;;;20.50;68.00;;;;;;5108363;28;20683;-64
2023/10/09 11:12:42;;;;;;;5.05;2.40;;;20.50;68.00;;;;;;5106882;28;20023;-64
2023/10/09 11:15:34;;;;;;;8.30;2.22;;;20.50;68.10;;;;;;5107317;28;20057;-64
2023/10/09 11:18:07;;;;;;;4.38;2.28;;;20.50;68.10;;;;;;5107770;28;20016;-64
2023/10/09 11:20:38;;;;;;;6.53;2.50;;;20.50;68.00;;;;;;5108564;28;20398;-64
2023/10/09 11:23:14;;;;;;;10.73;2.33;;;20.50;68.00;;;;;;5107463;28;20379;-64
2023/10/09 11:25:52;;;;;;;5.45;2.20;;;20.50;68.00;;;;;;5108029;28;20019;-64
2023/10/09 11:31:11;;;;;;;3.08;1.98;;;20.50;68.00;;;;;;5107922;28;20106;-64
2023/10/09 11:33:51;;;;;;;6.03;2.28;;;20.50;67.90;;;;;;5107591;28;20035;-64
2023/10/09 11:36:31;;;;;;;5.72;2.60;;;20.50;68.00;;;;;;5107636;28;20045;-64
2023/10/09 11:39:14;;;;;;;4.90;2.17;;;20.50;67.90;;;;;;5108054;28;20023;-64
2023/10/09 11:41:44;;;;;;;5.25;2.22;;;20.50;68.50;;;;;;5104646;28;20023;-64
2023/10/09 11:44:18;;;;;;;4.57;1.95;;;20.50;67.90;;;;;;5107896;28;20119;-64
2023/10/09 11:47:22;;;;;;;5.40;2.10;;;20.50;67.90;;;;;;5108295;28;20015;-65
2023/10/09 11:50:30;;;;;;;3.40;2.25;;;20.50;67.90;;;;;;5105061;28;20032;-65
2023/10/09 11:53:17;;;;;;;3.88;2.05;;;20.50;67.90;;;;;;5106180;28;20096;-64
2023/10/09 11:55:53;;;;;;;4.03;1.98;;;20.50;67.90;;;;;;5104094;28;20032;-64
2023/10/09 11:58:24;;;;;;;5.40;2.42;;;20.50;67.80;;;;;;5099712;28;20027;-64
2023/10/09 12:01:16;;;;;;;4.63;2.20;;;20.50;67.90;;;;;;5107640;28;20510;-64
2023/10/09 12:03:42;;;;;;;4.78;2.40;;;20.60;67.90;;;;;;5104636;28;20036;-64
2023/10/09 12:06:12;;;;;;;5.95;2.22;;;20.50;67.90;;;;;;5107839;28;20295;-64
2023/10/09 12:08:41;;;;;;;3.83;2.42;;;20.50;67.80;;;;;;5107569;28;20059;-64
2023/10/09 12:11:11;;;;;;;3.47;2.25;;;20.50;67.90;;;;;;5105692;28;20225;-64
2023/10/09 12:13:43;;;;;;;2.85;1.92;;;20.50;67.80;;;;;;5107095;28;20099;-64
2023/10/09 12:16:09;;;;;;;3.50;1.85;;;20.50;67.80;;;;;;5107342;28;20482;-64
2023/10/09 12:18:36;;;;;;;3.42;2.50;;;20.50;67.80;;;;;;5107270;28;20107;-64
2023/10/09 12:21:04;;;;;;;5.30;2.35;;;20.50;67.80;;;;;;5107629;28;20042;-64
2023/10/09 12:23:35;;;;;;;6.53;2.38;;;20.50;67.80;;;;;;5106882;28;20066;-64
2023/10/09 12:26:02;;;;;;;4.35;2.30;;;20.60;67.80;;;;;;5104429;28;20092;-64
2023/10/09 12:28:29;;;;;;;5.30;2.45;;;20.50;67.80;;;;;;5107600;28;20028;-64
2023/10/09 12:30:54;;;;;;;6.38;2.33;;;20.50;67.80;;;;;;5106319;28;20115;-64
2023/10/09 12:33:30;;;;;;;4.75;2.20;;;20.50;67.80;;;;;;5106874;28;20100;-64
2023/10/09 12:36:00;;;;;;;4.13;2.17;;;20.50;67.70;;;;;;5105398;28;20020;-65
2023/10/09 12:38:36;;;;;;;5.85;2.13;;;20.50;67.80;;;;;;5106028;28;20031;-65
2023/10/09 12:41:19;;;;;;;3.25;2.13;;;20.50;67.80;;;;;;5106900;28;20058;-64
2023/10/09 12:43:46;;;;;;;4.22;2.17;;;20.50;67.70;;;;;;5106661;28;20058;-65
2023/10/09 12:46:16;;;;;;;5.43;2.22;;;20.50;67.60;;;;;;5109466;28;20024;-64
2023/10/09 12:48:46;;;;;;;4.72;2.25;;;20.50;67.70;;;;;;5109662;28;20062;-65
2023/10/09 12:51:16;;;;;;;4.13;2.20;;;20.50;67.80;;;;;;5109466;28;20029;-64
2023/10/09 12:53:46;;;;;;;3.75;2.10;;;20.50;67.80;;;;;;5105503;28;20069;-64
2023/10/09 12:56:12;;;;;;;4.95;2.00;;;20.50;67.70;;;;;;5111155;28;20078;-64
2023/10/09 12:58:39;;;;;;;16.80;2.95;;;20.50;67.80;;;;;;5110251;28;20502;-65
2023/10/09 13:01:11;;;;;;;14.98;3.03;;;20.50;67.80;;;;;;5110779;28;20424;-64
2023/10/09 13:03:40;;;;;;;8.88;2.17;;;20.50;67.80;;;;;;5110755;28;20027;-63
2023/10/09 13:06:23;;;;;;;8.07;2.25;;;20.50;67.80;;;;;;5110507;28;20032;-62
2023/10/09 13:08:49;;;;;;;7.95;2.70;;;20.60;67.80;;;;;;5107352;28;20222;-64
2023/10/09 13:11:19;;;;;;;8.43;2.35;;;20.60;67.60;;;;;;5108607;28;20490;-64
2023/10/09 13:13:50;;;;;;;12.57;3.08;;;20.50;67.50;;;;;;5110129;28;20020;-64
2023/10/09 13:16:25;;;;;;;14.98;2.60;;;20.50;67.50;;;;;;5108031;28;20432;-64
2023/10/09 13:18:56;;;;;;;8.38;2.72;;;20.50;67.40;;;;;;5110892;28;20032;-65
2023/10/09 13:21:31;;;;;;;11.40;2.80;;;20.50;67.50;;;;;;5106856;28;20114;-64
2023/10/09 13:23:58;;;;;;;8.95;2.72;;;20.50;67.40;;;;;;5110341;28;20031;-64
2023/10/09 13:26:25;;;;;;;8.35;2.97;;;20.50;67.40;;;;;;5110594;28;20092;-64
2023/10/09 13:28:54;;;;;;;5.20;2.40;;;20.50;67.30;;;;;;5110100;28;20532;-64
2023/10/09 13:31:21;;;;;;;6.07;2.42;;;20.50;67.30;;;;;;5110142;28;20019;-64
2023/10/09 13:33:48;;;;;;;6.05;2.67;;;20.50;67.40;;;;;;5109977;28;20096;-64
2023/10/09 13:36:27;;;;;;;5.65;2.50;;;20.50;67.30;;;;;;5109829;28;20046;-64
2023/10/09 13:39:25;;;;;;;5.72;2.53;;;20.50;67.30;;;;;;5107439;28;20077;-65
2023/10/09 13:41:57;;;;;;;8.23;2.40;;;20.50;67.30;;;;;;5110308;28;20020;-64
2023/10/09 13:44:28;;;;;;;10.75;2.90;;;20.50;67.30;;;;;;5109778;28;20027;-65
2023/10/09 13:46:58;;;;;;;9.63;2.30;;;20.50;67.20;;;;;;5108701;28;20063;-63
2023/10/09 13:49:29;;;;;;;13.20;2.95;;;20.40;67.40;;;;;;5110333;28;20024;-65
2023/10/09 13:51:56;;;;;;;6.90;2.63;;;20.50;67.50;;;;;;5109401;28;20054;-62
2023/10/09 13:57:09;;;;;;;15.70;3.03;;;20.60;67.40;;;;;;5109258;28;20681;-62
2023/10/09 13:59:36;;;;;;;9.15;2.90;;;20.60;67.50;;;;;;5106865;28;20024;-62
2023/10/09 14:02:09;;;;;;;9.27;2.67;;;20.60;67.50;;;;;;5108036;28;20387;-62
2023/10/09 14:04:36;;;;;;;7.53;3.05;;;20.60;67.50;;;;;;5108160;28;20075;-62
2023/10/09 14:07:05;;;;;;;12.55;3.22;;;20.60;67.60;;;;;;5108606;28;20024;-62
2023/10/09 14:09:31;;;;;;;8.57;3.05;;;20.60;67.60;;;;;;5091447;28;20083;-62
2023/10/09 14:12:11;;;;;;;6.43;2.63;;;20.60;67.50;;;;;;5108180;28;20126;-62
2023/10/09 14:14:47;;;;;;;6.95;2.90;;;20.60;67.50;;;;;;5105391;28;20054;-62
2023/10/09 14:17:18;;;;;;;10.95;2.92;;;20.60;67.60;;;;;;5108918;28;20036;-62
2023/10/09 14:19:47;;;;;;;10.25;3.28;;;20.60;67.80;;;;;;5109627;28;20449;-63
2023/10/09 14:22:26;;;;;;;15.50;3.42;;;20.70;67.80;;;;;;5109423;28;20046;-62
2023/10/09 14:24:56;;;;;;;14.27;3.25;;;20.60;68.10;;;;;;5106683;28;20027;-63
2023/10/09 14:27:29;;;;;;;9.55;2.90;;;20.60;67.90;;;;;;5126482;22;20027;-47
2023/10/09 14:29:57;;;;;;;5.65;2.70;;;20.60;67.80;;;;;;5082378;28;20487;-49
2023/10/09 14:32:37;;;;;;;6.95;2.83;;;20.70;67.50;;;;;;5078720;28;20028;-45
2023/10/09 14:35:12;;;;;;;7.15;2.92;;;20.70;67.00;;;;;;5075092;28;20237;-48
2023/10/09 14:37:41;;;;;;;9.85;3.10;;;20.70;67.30;;;;;;5082357;28;20023;-49
2023/10/09 14:40:13;;;;;;;11.65;3.55;;;20.70;67.90;;;;;;5084115;28;20016;-48
2023/10/09 14:42:43;;;;;;;8.57;2.95;;;20.70;67.80;;;;;;5087288;28;20016;-50
2023/10/09 14:45:16;;;;;;;13.13;3.63;;;20.70;68.20;;;;;;5086590;28;20401;-48
2023/10/09 14:47:42;;;;;;;11.32;3.55;;;20.70;68.10;;;;;;5087412;28;20035;-46
2023/10/09 14:50:09;;;;;;;7.03;3.42;;;20.60;68.00;;;;;;5084594;28;20021;-46
2023/10/09 14:52:38;;;;;;;9.18;2.97;;;20.60;67.80;;;;;;5086063;28;20102;-49
2023/10/09 14:55:09;;;;;;;9.20;3.37;;;20.60;67.80;;;;;;5070177;28;20051;-47
2023/10/09 14:57:35;;;;;;;8.80;3.30;;;20.60;67.90;;;;;;5085195;28;20471;-48
2023/10/09 15:00:07;;;;;;;13.57;3.35;;;20.60;68.00;;;;;;5088058;28;20016;-48
2023/10/09 15:02:33;;;;;;;11.47;3.30;;;20.60;68.40;;;;;;5087815;28;20031;-52
2023/10/09 15:04:59;;;;;;;11.00;3.40;;;20.60;68.10;;;;;;5086315;28;20031;-55
2023/10/09 15:07:25;;;;;;;5.65;3.00;;;20.60;68.20;;;;;;5079837;28;20016;-54
2023/10/09 15:09:51;;;;;;;14.68;3.17;;;20.60;68.00;;;;;;5088731;28;20096;-50
2023/10/09 15:12:17;;;;;;;10.40;3.58;;;20.60;68.00;;;;;;5068598;28;20035;-49
2023/10/09 15:14:44;;;;;;;7.95;3.00;;;20.60;68.00;;;;;;5086556;28;20165;-48
2023/10/09 15:17:10;;;;;;;11.27;3.47;;;20.60;68.00;;;;;;5088290;28;20032;-49
2023/10/09 15:19:37;;;;;;;11.50;3.47;;;20.60;68.40;;;;;;5086481;28;20109;-48
2023/10/09 15:22:08;;;;;;;9.23;3.42;;;20.60;68.20;;;;;;5086689;28;20028;-49
2023/10/09 15:24:34;;;;;;;10.77;3.75;;;20.60;68.00;;;;;;5068182;28;20063;-48
2023/10/09 15:26:59;;;;;;;11.32;3.85;;;20.60;68.40;;;;;;5084763;28;20041;-51
2023/10/09 15:29:31;;;;;;;8.30;3.95;;;20.60;68.90;;;;;;5069138;28;20034;-51
2023/10/09 15:32:04;;;;;;;12.45;3.60;;;20.60;69.20;;;;;;5070185;28;20028;-49
2023/10/09 15:34:35;;;;;;;13.52;3.65;;;20.60;68.80;;;;;;5088890;28;20098;-49
2023/10/09 15:37:00;;;;;;;10.23;3.33;;;20.60;68.90;;;;;;5086892;28;20073;-49